createdAt,value
2017-12-19T00:04:46.660Z,89.48
2017-12-19T00:20:46.069Z,89.48
2017-12-19T00:25:46.897Z,89.74
2017-12-19T00:30:47.700Z,89.34
2017-12-19T00:35:48.530Z,89.80
2017-12-19T00:40:49.390Z,89.82
2017-12-19T00:45:52.206Z,89.11
2017-12-19T00:50:53.021Z,88.87
2017-12-19T00:55:53.840Z,89.40
2017-12-19T01:00:54.645Z,89.15
2017-12-19T01:05:55.436Z,89.58
2017-12-19T01:10:56.273Z,89.19
2017-12-19T01:15:57.121Z,89.39
2017-12-19T01:20:57.941Z,89.16
2017-12-19T01:25:58.783Z,88.84
2017-12-19T01:30:59.587Z,89.23
2017-12-19T01:36:00.424Z,89.79
2017-12-19T01:41:01.234Z,89.65
2017-12-19T01:46:02.017Z,88.91
2017-12-19T01:51:02.869Z,89.60
2017-12-19T01:56:03.678Z,89.01
2017-12-19T02:01:04.534Z,88.68
2017-12-19T02:06:05.345Z,89.27
2017-12-19T02:11:06.193Z,89.85
2017-12-19T02:16:07.053Z,89.37
2017-12-19T02:21:07.888Z,88.93
2017-12-19T02:26:08.757Z,87.94
2017-12-19T02:31:09.586Z,88.19
2017-12-19T02:36:10.444Z,87.94
2017-12-19T02:41:11.257Z,88.49
2017-12-19T02:46:12.073Z,87.97
2017-12-19T02:51:12.882Z,88.23
2017-12-19T02:56:13.693Z,88.75
2017-12-19T03:01:14.503Z,89.01
2017-12-19T03:06:15.332Z,88.54
2017-12-19T03:11:16.160Z,88.84
2017-12-19T03:16:16.970Z,88.52
2017-12-19T03:21:17.789Z,87.84
2017-12-19T03:26:18.575Z,87.74
2017-12-19T03:31:19.395Z,87.89
2017-12-19T03:36:20.213Z,88.48
2017-12-19T03:41:21.042Z,88.59
2017-12-19T03:46:21.882Z,88.69
2017-12-19T03:51:22.714Z,88.27
2017-12-19T03:56:23.574Z,88.41
2017-12-19T04:01:24.389Z,89.11
2017-12-19T04:06:25.210Z,87.59
2017-12-19T04:11:26.066Z,87.66
2017-12-19T04:16:26.883Z,88.60
2017-12-19T04:21:27.725Z,87.95
2017-12-19T04:26:28.585Z,87.59
2017-12-19T04:31:29.389Z,87.41
2017-12-19T04:36:30.216Z,87.42
2017-12-19T04:41:31.098Z,87.00
2017-12-19T04:46:31.915Z,87.54
2017-12-19T04:51:32.710Z,88.85
2017-12-19T04:56:33.537Z,87.89
2017-12-19T05:01:34.326Z,88.84
2017-12-19T05:06:41.307Z,87.82
2017-12-19T05:11:42.138Z,88.20
2017-12-19T05:16:42.954Z,88.06
2017-12-19T05:21:43.771Z,87.80
2017-12-19T05:26:44.558Z,88.14
2017-12-19T05:31:45.418Z,87.83
2017-12-19T05:36:46.249Z,86.73
2017-12-19T05:41:47.644Z,87.74
2017-12-19T05:46:48.447Z,87.37
2017-12-19T05:51:49.265Z,87.68
2017-12-19T05:56:50.065Z,87.50
2017-12-19T06:01:50.853Z,85.74
2017-12-19T06:06:51.657Z,87.22
2017-12-19T06:11:52.493Z,85.78
2017-12-19T06:16:53.291Z,86.64
2017-12-19T06:21:54.097Z,86.36
2017-12-19T06:26:54.907Z,85.73
2017-12-19T06:31:55.703Z,85.07
2017-12-19T06:36:56.651Z,86.16
2017-12-19T06:41:57.453Z,85.96
2017-12-19T06:46:58.331Z,85.94
2017-12-19T06:51:59.136Z,86.08
2017-12-19T06:56:59.962Z,85.84
2017-12-19T07:02:00.774Z,85.13
2017-12-19T07:07:08.611Z,85.64
2017-12-19T07:12:09.461Z,86.13
2017-12-19T07:17:13.702Z,86.57
2017-12-19T07:22:14.733Z,86.42
2017-12-19T07:27:15.594Z,85.94
2017-12-19T07:32:16.434Z,86.58
2017-12-19T07:37:17.236Z,85.44
2017-12-19T07:42:21.105Z,86.52
2017-12-19T07:47:21.992Z,85.53
2017-12-19T07:52:22.801Z,86.23
2017-12-19T07:57:23.609Z,86.33
2017-12-19T08:02:24.541Z,86.62
2017-12-19T08:07:25.336Z,87.01
2017-12-19T08:12:26.175Z,87.60
2017-12-19T08:17:26.969Z,86.96
2017-12-19T08:22:27.785Z,87.37
2017-12-19T08:27:28.629Z,87.42
2017-12-19T08:32:29.449Z,87.42
2017-12-19T08:37:30.330Z,87.15
2017-12-19T08:42:31.159Z,86.71
2017-12-19T08:47:31.992Z,86.34
2017-12-19T08:52:32.820Z,85.88
2017-12-19T08:57:33.614Z,84.84
2017-12-19T09:02:34.467Z,85.50
2017-12-19T09:07:35.326Z,84.62
2017-12-19T09:12:36.181Z,84.42
2017-12-19T09:17:37.052Z,83.67
2017-12-19T09:22:37.906Z,84.38
2017-12-19T09:27:38.744Z,84.26
2017-12-19T09:32:39.587Z,83.15
2017-12-19T09:37:40.404Z,83.93
2017-12-19T09:42:41.252Z,84.35
2017-12-19T09:47:42.077Z,84.23
2017-12-19T09:52:42.925Z,83.40
2017-12-19T09:57:43.737Z,82.31
2017-12-19T10:02:44.535Z,82.46
2017-12-19T10:07:45.385Z,81.77
2017-12-19T10:12:46.216Z,80.88
2017-12-19T10:17:47.067Z,82.98
2017-12-19T10:22:47.902Z,83.03
2017-12-19T10:27:48.797Z,83.67
2017-12-19T10:32:49.665Z,84.05
2017-12-19T10:37:50.517Z,80.49
2017-12-19T10:42:51.330Z,80.25
2017-12-19T10:47:52.129Z,80.86
2017-12-19T10:52:52.945Z,81.66
2017-12-19T10:57:53.747Z,79.34
2017-12-19T11:02:54.548Z,78.78
2017-12-19T11:07:55.383Z,80.33
2017-12-19T11:12:56.161Z,77.96
2017-12-19T11:17:56.954Z,78.75
2017-12-19T11:22:57.821Z,80.77
2017-12-19T11:27:58.689Z,80.87
2017-12-19T11:32:59.610Z,79.45
2017-12-19T11:38:04.114Z,79.80
2017-12-19T11:43:04.946Z,78.35
2017-12-19T11:48:05.763Z,77.85
2017-12-19T11:53:06.569Z,79.15
2017-12-19T11:58:07.377Z,79.13
2017-12-19T12:03:08.205Z,80.73
2017-12-19T12:08:09.056Z,80.84
2017-12-19T12:13:09.874Z,82.08
2017-12-19T12:18:10.714Z,80.87
2017-12-19T12:23:11.565Z,81.60
2017-12-19T12:28:12.377Z,80.64
2017-12-19T12:33:13.239Z,79.42
2017-12-19T12:38:14.048Z,80.46
2017-12-19T12:43:14.947Z,80.14
2017-12-19T12:48:15.701Z,80.91
2017-12-19T12:53:16.526Z,80.87
2017-12-19T12:58:17.320Z,81.46
2017-12-19T13:03:18.142Z,80.78
2017-12-19T13:08:18.946Z,82.17
2017-12-19T13:13:19.741Z,80.66
2017-12-19T13:18:20.815Z,81.08
2017-12-19T13:23:22.597Z,81.88
2017-12-19T13:28:23.661Z,80.35
2017-12-19T13:33:24.488Z,82.05
2017-12-19T13:38:25.314Z,81.97
2017-12-19T13:43:26.153Z,80.74
2017-12-19T13:48:27.081Z,81.10
2017-12-19T13:53:27.902Z,82.64
2017-12-19T13:58:28.791Z,82.74
2017-12-19T14:03:29.609Z,83.05
2017-12-19T14:08:30.465Z,82.95
2017-12-19T14:13:32.303Z,83.37
2017-12-19T14:18:33.118Z,83.61
2017-12-19T14:28:41.558Z,83.02
2017-12-19T14:33:42.382Z,85.13
2017-12-19T14:38:43.333Z,84.48
2017-12-19T14:43:44.127Z,84.34
2017-12-19T14:48:45.287Z,85.40
2017-12-19T14:53:46.721Z,86.24
2017-12-19T14:58:47.705Z,86.35
2017-12-19T15:03:48.577Z,87.01
2017-12-19T15:08:49.369Z,87.28
2017-12-19T15:13:50.183Z,86.86
2017-12-19T15:18:50.979Z,88.13
2017-12-19T15:23:51.769Z,88.11
2017-12-19T15:28:52.594Z,87.71
2017-12-19T15:33:53.402Z,87.54
2017-12-19T15:38:54.210Z,87.69
2017-12-19T15:43:55.021Z,87.86
2017-12-19T15:48:55.846Z,88.07
2017-12-19T15:53:56.665Z,88.29
2017-12-19T15:58:58.501Z,88.79
2017-12-19T16:03:59.316Z,88.51
2017-12-19T16:09:00.141Z,88.82
2017-12-19T16:14:00.974Z,88.81
2017-12-19T16:19:01.813Z,88.91
2017-12-19T16:24:02.629Z,88.22
2017-12-19T16:29:07.437Z,88.41
2017-12-19T16:34:08.233Z,87.88
2017-12-19T16:39:09.058Z,87.72
2017-12-19T16:44:09.888Z,86.13
2017-12-19T16:49:10.733Z,84.57
2017-12-19T16:54:11.545Z,84.30
2017-12-19T16:59:12.362Z,82.80
2017-12-19T17:04:13.162Z,83.22
2017-12-19T17:09:14.000Z,82.91
2017-12-19T17:14:14.863Z,82.15
2017-12-19T17:19:19.263Z,81.81
2017-12-19T17:24:20.161Z,82.99
2017-12-19T17:29:20.998Z,82.37
2017-12-19T17:34:21.811Z,82.24
2017-12-19T17:39:22.710Z,81.01
2017-12-19T17:44:23.529Z,81.58
2017-12-19T17:49:28.140Z,81.74
2017-12-19T17:54:28.944Z,82.64
2017-12-19T17:59:29.786Z,81.78
2017-12-19T18:04:30.610Z,82.04
2017-12-19T18:09:31.787Z,81.46
2017-12-19T18:14:32.632Z,81.94
2017-12-19T18:19:33.643Z,82.17
2017-12-19T18:24:38.374Z,83.12
2017-12-19T18:29:39.232Z,83.63
2017-12-19T18:34:40.057Z,83.20
2017-12-19T18:39:40.890Z,84.30
2017-12-19T18:44:41.717Z,85.35
2017-12-19T18:49:42.599Z,84.58
2017-12-19T18:54:43.471Z,86.18
2017-12-19T18:59:46.313Z,85.69
2017-12-19T19:04:47.109Z,84.97
2017-12-19T19:09:48.737Z,84.13
2017-12-19T19:14:49.597Z,84.26
2017-12-19T19:19:50.433Z,85.16
2017-12-19T19:24:51.284Z,84.29
2017-12-19T19:29:52.133Z,84.12
2017-12-19T19:34:53.006Z,84.25
2017-12-19T19:39:53.813Z,83.55
2017-12-19T19:44:54.665Z,83.03
2017-12-19T19:49:55.529Z,82.63
2017-12-19T19:54:56.374Z,83.04
2017-12-19T19:59:57.221Z,83.87
2017-12-19T20:04:58.009Z,85.50
2017-12-19T20:09:59.894Z,87.34
2017-12-19T20:15:00.806Z,89.39
2017-12-19T20:20:01.644Z,90.58
2017-12-19T20:25:02.497Z,91.29
2017-12-19T20:30:03.455Z,91.95
2017-12-19T20:35:04.266Z,91.56
2017-12-19T20:40:05.116Z,91.90
2017-12-19T20:45:09.684Z,91.88
2017-12-19T20:50:10.581Z,92.29
2017-12-19T20:55:11.424Z,91.92
2017-12-19T21:00:12.332Z,91.07
2017-12-19T21:05:13.085Z,90.33
2017-12-19T21:10:13.899Z,90.46
2017-12-19T21:15:14.726Z,89.99
2017-12-19T21:20:15.568Z,89.77
2017-12-19T21:25:16.398Z,89.88
2017-12-19T21:30:17.279Z,89.71
2017-12-19T21:35:18.106Z,89.55
2017-12-19T21:40:18.962Z,89.38
2017-12-19T21:45:19.822Z,89.24
2017-12-19T21:50:20.672Z,89.66
2017-12-19T21:55:21.519Z,89.89
2017-12-19T22:00:22.342Z,89.50
2017-12-19T22:05:23.190Z,88.61
2017-12-19T22:10:26.013Z,88.92
2017-12-19T22:15:26.870Z,89.09
2017-12-19T22:20:30.957Z,88.64
2017-12-19T22:25:31.832Z,88.35
2017-12-19T22:30:32.654Z,89.28
2017-12-19T22:35:33.590Z,89.53
2017-12-19T22:40:34.675Z,89.77
2017-12-19T22:45:35.481Z,89.97
2017-12-19T22:50:36.343Z,89.56
2017-12-19T22:55:37.258Z,89.84
2017-12-19T23:00:41.984Z,90.25
2017-12-19T23:05:42.875Z,90.89
2017-12-19T23:10:43.795Z,90.50
2017-12-19T23:15:44.697Z,90.82
2017-12-19T23:20:45.536Z,90.86
2017-12-19T23:25:46.382Z,91.28
2017-12-19T23:30:47.214Z,91.06
2017-12-19T23:35:54.149Z,91.19
2017-12-19T23:40:54.965Z,91.44
2017-12-19T23:45:55.798Z,91.48
2017-12-19T23:51:03.541Z,91.68
2017-12-19T23:56:04.415Z,91.80
